Cape Fear, North Carolina
Current Conditions -  °F | °C
As of 9:53 PM on Monday 20 Oct 2014 (Local Time) from KILM Reporting Station
Few Clouds Few Clouds  
Wind Chill: 60°   Ceiling: Unl
Heat Index: 60°   Visibility: 10mi
Dew Point: 57°   Wind: 3mph
Humidity: 90%   Direction: 300°WNW
Pressure: 30.01"   Gusts: NA
Location:  34.2436°N, 77.9363°W
Report Text: KILM 210153Z AUTO 30003KT 10SM FEW070 16/14 A3001 RMK AO2 SLP163 T01560139
Loading
Personal Weather Stations






























Interactive Weather Map
Tropical Storm Tracking
New forecast layout! Learn more

10-Day Weather Forecast

Advertisements
Track Severe Weather on mobile